Flugplatz Halle-Oppin

Für EDAQ sind keine METAR/TAF Berichte vorhanden.
Es werden die Flugwettermeldungen vom Flugplatz Leipzig Halle in 19 km Entfernung angezeigt.

Bericht für EDDP

vom 24.10. um 01:50 UTC

Wind 25 kt aus 290°

Sichtweite 8000 m

schwacher Sprühregen

aufgelockert bewölkt in 1200 ft

aufgebrochene Bewölkung in 1800 ft

Temperatur 12.0°C

Taupunkt 10.0°C

Luftfeuchtigkeit 88%

Luftdruck 1010 hPa

EDDP 240150Z 29025KT 8000 -DZ SCT012 BKN018 12/10 Q1010 TEMPO 28020G35KT 4000 RADZ BKN012

Prognose für EDDP

vom 23.10. um 23:50 UTC

Zwischen 00:00 UTC und 01:00 UTC

Wind 30 kt aus 280° in Böen 45 kt

Sichtweite 10 km oder mehr

aufgelockert bewölkt in 1300 ft

aufgebrochene Bewölkung in 2000 ft


Zwischen 00:00 UTC und 08:00 UTC zeitweise

Sichtweite 4000 m

schwacher Regen

schwacher Sprühregen

aufgebrochene Bewölkung in 1200 ft


Zwischen 01:00 und 04:00 UTC übergehend zu

Wind 15 kt aus 310° in Böen 30 kt

Sichtweite 10 km oder mehr

aufgelockert bewölkt in 1300 ft

aufgebrochene Bewölkung in 2000 ft


Zwischen 14:00 und 17:00 UTC übergehend zu

Wind 8 kt aus 280°

Sichtweite 10 km oder mehr

aufgelockert bewölkt in 1300 ft

aufgebrochene Bewölkung in 2000 ft

TAF COR EDDP 232350Z 2400/2424 28030G45KT 9999 SCT013 BKN020 TEMPO 2400/2408 4000 -RADZ BKN012 BECMG 2401/2404 31015G30KT BECMG 2414/2417 28008KT
Impressum